sensor_id;sensor_type;location;lat;lon;timestamp;P1;durP1;ratioP1;P2;durP2;ratioP2
64029;SDS011;50277;52.064;4.492;2023-03-04T00:00:49;11.35;;;2.38;;
64029;SDS011;50277;52.064;4.492;2023-03-04T00:03:15;8.73;;;1.90;;
64029;SDS011;50277;52.064;4.492;2023-03-04T00:05:40;11.20;;;2.35;;
64029;SDS011;50277;52.064;4.492;2023-03-04T00:08:06;13.32;;;3.03;;
64029;SDS011;50277;52.064;4.492;2023-03-04T00:10:31;15.85;;;2.42;;
64029;SDS011;50277;52.064;4.492;2023-03-04T00:12:57;12.95;;;2.42;;
64029;SDS011;50277;52.064;4.492;2023-03-04T00:15:22;15.90;;;4.22;;
64029;SDS011;50277;52.064;4.492;2023-03-04T00:17:47;12.07;;;2.03;;
64029;SDS011;50277;52.064;4.492;2023-03-04T00:20:13;11.43;;;2.58;;
64029;SDS011;50277;52.064;4.492;2023-03-04T00:22:38;7.18;;;1.83;;
64029;SDS011;50277;52.064;4.492;2023-03-04T00:25:04;10.18;;;2.15;;
64029;SDS011;50277;52.064;4.492;2023-03-04T00:27:30;16.63;;;2.10;;
64029;SDS011;50277;52.064;4.492;2023-03-04T00:29:55;15.43;;;2.40;;
64029;SDS011;50277;52.064;4.492;2023-03-04T00:32:21;19.42;;;2.83;;
64029;SDS011;50277;52.064;4.492;2023-03-04T00:34:47;7.35;;;1.90;;
64029;SDS011;50277;52.064;4.492;2023-03-04T00:37:12;17.88;;;2.75;;
64029;SDS011;50277;52.064;4.492;2023-03-04T00:39:37;8.63;;;2.10;;
64029;SDS011;50277;52.064;4.492;2023-03-04T00:42:03;11.80;;;2.55;;
64029;SDS011;50277;52.064;4.492;2023-03-04T00:44:28;9.48;;;2.05;;
64029;SDS011;50277;52.064;4.492;2023-03-04T00:46:53;16.52;;;2.28;;
64029;SDS011;50277;52.064;4.492;2023-03-04T00:49:19;13.05;;;2.42;;
64029;SDS011;50277;52.064;4.492;2023-03-04T00:51:44;15.50;;;2.78;;
64029;SDS011;50277;52.064;4.492;2023-03-04T00:54:09;17.63;;;3.13;;
64029;SDS011;50277;52.064;4.492;2023-03-04T00:56:35;7.65;;;1.90;;
64029;SDS011;50277;52.064;4.492;2023-03-04T00:59:00;10.57;;;1.92;;
64029;SDS011;50277;52.064;4.492;2023-03-04T01:01:25;10.60;;;2.42;;
64029;SDS011;50277;52.064;4.492;2023-03-04T01:03:51;10.38;;;2.58;;
64029;SDS011;50277;52.064;4.492;2023-03-04T01:06:16;12.35;;;2.20;;
64029;SDS011;50277;52.064;4.492;2023-03-04T01:08:41;12.35;;;1.75;;
64029;SDS011;50277;52.064;4.492;2023-03-04T01:11:07;10.32;;;2.85;;
64029;SDS011;50277;52.064;4.492;2023-03-04T01:13:32;11.40;;;2.17;;
64029;SDS011;50277;52.064;4.492;2023-03-04T01:15:58;15.93;;;2.13;;
64029;SDS011;50277;52.064;4.492;2023-03-04T01:18:23;14.23;;;2.25;;
64029;SDS011;50277;52.064;4.492;2023-03-04T01:20:49;12.27;;;2.58;;
64029;SDS011;50277;52.064;4.492;2023-03-04T01:23:15;7.43;;;1.58;;
64029;SDS011;50277;52.064;4.492;2023-03-04T01:25:40;8.82;;;1.63;;
64029;SDS011;50277;52.064;4.492;2023-03-04T01:28:06;16.80;;;2.58;;
64029;SDS011;50277;52.064;4.492;2023-03-04T01:30:31;11.93;;;1.60;;
64029;SDS011;50277;52.064;4.492;2023-03-04T01:32:57;12.35;;;2.10;;
64029;SDS011;50277;52.064;4.492;2023-03-04T01:35:22;12.77;;;2.22;;
64029;SDS011;50277;52.064;4.492;2023-03-04T01:37:48;11.13;;;2.30;;
64029;SDS011;50277;52.064;4.492;2023-03-04T01:40:13;13.50;;;2.13;;
64029;SDS011;50277;52.064;4.492;2023-03-04T01:42:38;12.15;;;2.08;;
64029;SDS011;50277;52.064;4.492;2023-03-04T01:45:04;10.10;;;1.80;;
64029;SDS011;50277;52.064;4.492;2023-03-04T01:47:30;16.58;;;3.42;;
64029;SDS011;50277;52.064;4.492;2023-03-04T01:49:57;8.50;;;1.70;;
64029;SDS011;50277;52.064;4.492;2023-03-04T01:52:22;12.57;;;2.05;;
64029;SDS011;50277;52.064;4.492;2023-03-04T01:54:49;12.52;;;2.45;;
64029;SDS011;50277;52.064;4.492;2023-03-04T01:57:16;14.90;;;2.75;;
64029;SDS011;50277;52.064;4.492;2023-03-04T01:59:43;12.07;;;2.00;;
64029;SDS011;50277;52.064;4.492;2023-03-04T02:02:08;9.48;;;2.25;;
64029;SDS011;50277;52.064;4.492;2023-03-04T02:04:34;10.93;;;1.85;;
64029;SDS011;50277;52.064;4.492;2023-03-04T02:07:00;6.40;;;1.98;;
64029;SDS011;50277;52.064;4.492;2023-03-04T02:09:26;11.10;;;2.00;;
64029;SDS011;50277;52.064;4.492;2023-03-04T02:11:52;15.00;;;2.67;;
64029;SDS011;50277;52.064;4.492;2023-03-04T02:14:18;11.60;;;2.35;;
64029;SDS011;50277;52.064;4.492;2023-03-04T02:16:44;9.98;;;1.70;;
64029;SDS011;50277;52.064;4.492;2023-03-04T02:21:58;8.23;;;2.40;;
64029;SDS011;50277;52.064;4.492;2023-03-04T02:24:32;8.13;;;1.95;;
64029;SDS011;50277;52.064;4.492;2023-03-04T02:27:00;10.63;;;1.52;;
64029;SDS011;50277;52.064;4.492;2023-03-04T02:29:25;12.18;;;1.98;;
64029;SDS011;50277;52.064;4.492;2023-03-04T02:31:52;7.78;;;2.00;;
64029;SDS011;50277;52.064;4.492;2023-03-04T02:36:44;9.95;;;1.90;;
64029;SDS011;50277;52.064;4.492;2023-03-04T02:39:11;9.93;;;1.60;;
64029;SDS011;50277;52.064;4.492;2023-03-04T02:41:45;10.55;;;1.60;;
64029;SDS011;50277;52.064;4.492;2023-03-04T02:44:15;16.42;;;2.17;;
64029;SDS011;50277;52.064;4.492;2023-03-04T02:49:08;9.45;;;1.83;;
64029;SDS011;50277;52.064;4.492;2023-03-04T02:51:33;13.38;;;2.20;;
64029;SDS011;50277;52.064;4.492;2023-03-04T02:53:59;10.85;;;1.95;;
64029;SDS011;50277;52.064;4.492;2023-03-04T02:56:24;19.35;;;2.58;;
64029;SDS011;50277;52.064;4.492;2023-03-04T02:58:49;13.88;;;1.90;;
64029;SDS011;50277;52.064;4.492;2023-03-04T03:01:15;12.23;;;2.10;;
64029;SDS011;50277;52.064;4.492;2023-03-04T03:03:40;9.85;;;1.60;;
64029;SDS011;50277;52.064;4.492;2023-03-04T03:06:05;12.82;;;1.98;;
64029;SDS011;50277;52.064;4.492;2023-03-04T03:08:31;13.73;;;2.10;;
64029;SDS011;50277;52.064;4.492;2023-03-04T03:10:56;9.77;;;1.90;;
64029;SDS011;50277;52.064;4.492;2023-03-04T03:13:21;7.18;;;1.83;;
64029;SDS011;50277;52.064;4.492;2023-03-04T03:15:47;10.07;;;1.58;;
64029;SDS011;50277;52.064;4.492;2023-03-04T03:18:12;10.80;;;2.08;;
64029;SDS011;50277;52.064;4.492;2023-03-04T03:20:37;8.65;;;1.70;;
64029;SDS011;50277;52.064;4.492;2023-03-04T03:23:03;6.57;;;1.67;;
64029;SDS011;50277;52.064;4.492;2023-03-04T03:25:28;14.38;;;2.17;;
64029;SDS011;50277;52.064;4.492;2023-03-04T03:27:54;9.52;;;1.75;;
64029;SDS011;50277;52.064;4.492;2023-03-04T03:30:19;11.23;;;2.90;;
64029;SDS011;50277;52.064;4.492;2023-03-04T03:32:45;5.80;;;1.63;;
64029;SDS011;50277;52.064;4.492;2023-03-04T03:35:10;13.88;;;1.60;;
64029;SDS011;50277;52.064;4.492;2023-03-04T03:37:36;16.63;;;1.73;;
64029;SDS011;50277;52.064;4.492;2023-03-04T03:40:02;13.38;;;1.98;;
64029;SDS011;50277;52.064;4.492;2023-03-04T03:42:28;14.40;;;2.05;;
64029;SDS011;50277;52.064;4.492;2023-03-04T03:44:53;10.82;;;1.92;;
64029;SDS011;50277;52.064;4.492;2023-03-04T03:47:19;7.47;;;1.55;;
64029;SDS011;50277;52.064;4.492;2023-03-04T03:49:45;9.75;;;1.70;;
64029;SDS011;50277;52.064;4.492;2023-03-04T03:52:10;9.20;;;1.63;;
64029;SDS011;50277;52.064;4.492;2023-03-04T03:54:36;9.70;;;1.52;;
64029;SDS011;50277;52.064;4.492;2023-03-04T03:57:01;8.43;;;1.95;;
64029;SDS011;50277;52.064;4.492;2023-03-04T03:59:26;10.05;;;1.60;;
64029;SDS011;50277;52.064;4.492;2023-03-04T04:01:52;8.25;;;1.40;;
64029;SDS011;50277;52.064;4.492;2023-03-04T04:04:17;11.73;;;1.73;;
64029;SDS011;50277;52.064;4.492;2023-03-04T04:06:42;6.97;;;2.33;;
64029;SDS011;50277;52.064;4.492;2023-03-04T04:09:08;9.40;;;2.13;;
64029;SDS011;50277;52.064;4.492;2023-03-04T04:11:34;6.07;;;1.60;;
64029;SDS011;50277;52.064;4.492;2023-03-04T04:13:59;13.40;;;2.20;;
64029;SDS011;50277;52.064;4.492;2023-03-04T04:16:24;6.65;;;1.40;;
64029;SDS011;50277;52.064;4.492;2023-03-04T04:18:50;6.90;;;1.35;;
64029;SDS011;50277;52.064;4.492;2023-03-04T04:21:15;8.55;;;1.45;;
64029;SDS011;50277;52.064;4.492;2023-03-04T04:23:40;9.90;;;1.75;;
64029;SDS011;50277;52.064;4.492;2023-03-04T04:26:06;13.48;;;1.88;;
64029;SDS011;50277;52.064;4.492;2023-03-04T04:28:31;11.82;;;1.63;;
64029;SDS011;50277;52.064;4.492;2023-03-04T04:30:57;11.35;;;1.88;;
64029;SDS011;50277;52.064;4.492;2023-03-04T04:33:22;6.68;;;2.50;;
64029;SDS011;50277;52.064;4.492;2023-03-04T04:35:47;11.32;;;1.80;;
64029;SDS011;50277;52.064;4.492;2023-03-04T04:38:13;8.75;;;1.58;;
64029;SDS011;50277;52.064;4.492;2023-03-04T04:40:39;7.93;;;1.65;;
64029;SDS011;50277;52.064;4.492;2023-03-04T04:43:04;5.22;;;1.60;;
64029;SDS011;50277;52.064;4.492;2023-03-04T04:45:30;11.43;;;1.92;;
64029;SDS011;50277;52.064;4.492;2023-03-04T04:47:56;11.02;;;2.10;;
64029;SDS011;50277;52.064;4.492;2023-03-04T04:50:24;11.85;;;1.70;;
64029;SDS011;50277;52.064;4.492;2023-03-04T04:52:50;6.82;;;1.73;;
64029;SDS011;50277;52.064;4.492;2023-03-04T04:55:15;12.18;;;2.55;;
64029;SDS011;50277;52.064;4.492;2023-03-04T04:57:41;14.65;;;2.42;;
64029;SDS011;50277;52.064;4.492;2023-03-04T05:00:06;14.82;;;2.10;;
64029;SDS011;50277;52.064;4.492;2023-03-04T05:02:34;9.57;;;1.90;;
64029;SDS011;50277;52.064;4.492;2023-03-04T05:05:00;9.75;;;1.67;;
64029;SDS011;50277;52.064;4.492;2023-03-04T05:07:26;9.35;;;1.90;;
64029;SDS011;50277;52.064;4.492;2023-03-04T05:09:52;6.72;;;1.35;;
64029;SDS011;50277;52.064;4.492;2023-03-04T05:12:17;5.30;;;1.35;;
64029;SDS011;50277;52.064;4.492;2023-03-04T05:14:42;2.95;;;1.42;;
64029;SDS011;50277;52.064;4.492;2023-03-04T05:17:08;8.93;;;1.35;;
64029;SDS011;50277;52.064;4.492;2023-03-04T05:19:33;11.57;;;1.55;;
64029;SDS011;50277;52.064;4.492;2023-03-04T05:21:58;4.38;;;1.40;;
64029;SDS011;50277;52.064;4.492;2023-03-04T05:24:24;7.55;;;1.65;;
64029;SDS011;50277;52.064;4.492;2023-03-04T05:26:49;7.93;;;1.80;;
64029;SDS011;50277;52.064;4.492;2023-03-04T05:29:14;10.48;;;1.92;;
64029;SDS011;50277;52.064;4.492;2023-03-04T05:31:39;10.90;;;2.13;;
64029;SDS011;50277;52.064;4.492;2023-03-04T05:34:05;10.50;;;2.08;;
64029;SDS011;50277;52.064;4.492;2023-03-04T05:36:30;6.45;;;1.70;;
64029;SDS011;50277;52.064;4.492;2023-03-04T05:38:56;15.25;;;2.67;;
64029;SDS011;50277;52.064;4.492;2023-03-04T05:41:21;10.43;;;2.03;;
64029;SDS011;50277;52.064;4.492;2023-03-04T05:43:47;15.05;;;2.00;;
64029;SDS011;50277;52.064;4.492;2023-03-04T05:46:14;5.13;;;1.60;;
64029;SDS011;50277;52.064;4.492;2023-03-04T05:48:40;3.85;;;1.27;;
64029;SDS011;50277;52.064;4.492;2023-03-04T05:51:06;10.73;;;1.63;;
64029;SDS011;50277;52.064;4.492;2023-03-04T05:53:31;5.78;;;1.98;;
64029;SDS011;50277;52.064;4.492;2023-03-04T05:55:57;11.07;;;1.30;;
64029;SDS011;50277;52.064;4.492;2023-03-04T05:58:24;4.82;;;1.55;;
64029;SDS011;50277;52.064;4.492;2023-03-04T06:00:49;9.57;;;1.80;;
64029;SDS011;50277;52.064;4.492;2023-03-04T06:03:15;3.83;;;1.60;;
64029;SDS011;50277;52.064;4.492;2023-03-04T06:05:42;7.72;;;1.65;;
64029;SDS011;50277;52.064;4.492;2023-03-04T06:08:07;9.63;;;1.33;;
64029;SDS011;50277;52.064;4.492;2023-03-04T06:10:33;7.25;;;1.50;;
64029;SDS011;50277;52.064;4.492;2023-03-04T06:12:59;6.50;;;1.67;;
64029;SDS011;50277;52.064;4.492;2023-03-04T06:15:24;8.40;;;1.48;;
64029;SDS011;50277;52.064;4.492;2023-03-04T06:17:49;8.00;;;2.05;;
64029;SDS011;50277;52.064;4.492;2023-03-04T06:20:15;8.55;;;1.85;;
64029;SDS011;50277;52.064;4.492;2023-03-04T06:22:40;4.53;;;1.48;;
64029;SDS011;50277;52.064;4.492;2023-03-04T06:25:06;8.95;;;2.38;;
64029;SDS011;50277;52.064;4.492;2023-03-04T06:27:31;12.52;;;2.00;;
64029;SDS011;50277;52.064;4.492;2023-03-04T06:29:57;6.13;;;1.98;;
64029;SDS011;50277;52.064;4.492;2023-03-04T06:32:22;8.07;;;1.80;;
64029;SDS011;50277;52.064;4.492;2023-03-04T06:34:48;7.95;;;1.90;;
64029;SDS011;50277;52.064;4.492;2023-03-04T06:37:13;7.85;;;1.90;;
64029;SDS011;50277;52.064;4.492;2023-03-04T06:39:38;7.30;;;2.10;;
64029;SDS011;50277;52.064;4.492;2023-03-04T06:42:04;7.97;;;1.77;;
64029;SDS011;50277;52.064;4.492;2023-03-04T06:44:29;8.80;;;1.98;;
64029;SDS011;50277;52.064;4.492;2023-03-04T06:46:54;5.35;;;1.52;;
64029;SDS011;50277;52.064;4.492;2023-03-04T06:49:20;5.97;;;1.70;;
64029;SDS011;50277;52.064;4.492;2023-03-04T06:51:45;8.90;;;1.48;;
64029;SDS011;50277;52.064;4.492;2023-03-04T06:54:11;7.15;;;1.80;;
64029;SDS011;50277;52.064;4.492;2023-03-04T06:56:36;10.40;;;1.63;;
64029;SDS011;50277;52.064;4.492;2023-03-04T06:59:01;7.78;;;2.05;;
64029;SDS011;50277;52.064;4.492;2023-03-04T07:01:27;4.45;;;1.15;;
64029;SDS011;50277;52.064;4.492;2023-03-04T07:03:53;5.95;;;1.40;;
64029;SDS011;50277;52.064;4.492;2023-03-04T07:06:20;5.65;;;1.33;;
64029;SDS011;50277;52.064;4.492;2023-03-04T07:08:47;7.05;;;1.48;;
64029;SDS011;50277;52.064;4.492;2023-03-04T07:11:13;3.88;;;1.13;;
64029;SDS011;50277;52.064;4.492;2023-03-04T07:13:39;6.97;;;1.65;;
64029;SDS011;50277;52.064;4.492;2023-03-04T07:16:05;6.35;;;2.28;;
64029;SDS011;50277;52.064;4.492;2023-03-04T07:18:31;5.57;;;1.35;;
64029;SDS011;50277;52.064;4.492;2023-03-04T07:20:56;7.38;;;1.23;;
64029;SDS011;50277;52.064;4.492;2023-03-04T07:23:21;5.60;;;1.27;;
64029;SDS011;50277;52.064;4.492;2023-03-04T07:25:47;4.20;;;1.60;;
64029;SDS011;50277;52.064;4.492;2023-03-04T07:28:13;2.67;;;1.20;;
64029;SDS011;50277;52.064;4.492;2023-03-04T07:30:38;6.30;;;1.27;;
64029;SDS011;50277;52.064;4.492;2023-03-04T07:33:04;6.93;;;1.20;;
64029;SDS011;50277;52.064;4.492;2023-03-04T07:35:29;7.38;;;1.52;;
64029;SDS011;50277;52.064;4.492;2023-03-04T07:37:54;5.03;;;1.10;;
64029;SDS011;50277;52.064;4.492;2023-03-04T07:40:20;1.73;;;1.00;;
64029;SDS011;50277;52.064;4.492;2023-03-04T07:42:49;3.92;;;1.10;;
64029;SDS011;50277;52.064;4.492;2023-03-04T07:45:15;5.85;;;1.13;;
64029;SDS011;50277;52.064;4.492;2023-03-04T07:47:40;6.60;;;1.55;;
64029;SDS011;50277;52.064;4.492;2023-03-04T07:50:06;2.58;;;1.58;;
64029;SDS011;50277;52.064;4.492;2023-03-04T07:52:31;3.13;;;1.15;;
64029;SDS011;50277;52.064;4.492;2023-03-04T07:54:57;6.35;;;1.40;;
64029;SDS011;50277;52.064;4.492;2023-03-04T07:57:22;6.53;;;2.03;;
64029;SDS011;50277;52.064;4.492;2023-03-04T07:59:47;4.60;;;1.35;;
64029;SDS011;50277;52.064;4.492;2023-03-04T08:02:13;4.90;;;1.23;;
64029;SDS011;50277;52.064;4.492;2023-03-04T08:04:39;5.95;;;1.00;;
64029;SDS011;50277;52.064;4.492;2023-03-04T08:07:04;3.83;;;1.02;;
64029;SDS011;50277;52.064;4.492;2023-03-04T08:09:30;4.32;;;0.73;;
64029;SDS011;50277;52.064;4.492;2023-03-04T08:11:56;3.22;;;1.20;;
64029;SDS011;50277;52.064;4.492;2023-03-04T08:14:21;1.02;;;0.80;;
64029;SDS011;50277;52.064;4.492;2023-03-04T08:16:46;3.05;;;0.88;;
64029;SDS011;50277;52.064;4.492;2023-03-04T08:19:12;5.78;;;1.20;;
64029;SDS011;50277;52.064;4.492;2023-03-04T08:21:37;3.58;;;0.70;;
64029;SDS011;50277;52.064;4.492;2023-03-04T08:24:02;4.40;;;0.98;;
64029;SDS011;50277;52.064;4.492;2023-03-04T08:26:33;1.67;;;1.15;;
64029;SDS011;50277;52.064;4.492;2023-03-04T08:29:03;2.10;;;1.08;;
64029;SDS011;50277;52.064;4.492;2023-03-04T08:31:29;2.20;;;0.90;;
64029;SDS011;50277;52.064;4.492;2023-03-04T08:33:55;2.63;;;0.80;;
64029;SDS011;50277;52.064;4.492;2023-03-04T08:36:20;6.47;;;1.30;;
64029;SDS011;50277;52.064;4.492;2023-03-04T08:38:46;5.30;;;1.13;;
64029;SDS011;50277;52.064;4.492;2023-03-04T08:41:11;5.22;;;1.17;;
64029;SDS011;50277;52.064;4.492;2023-03-04T08:43:37;3.80;;;1.02;;
64029;SDS011;50277;52.064;4.492;2023-03-04T08:46:02;2.20;;;0.88;;
64029;SDS011;50277;52.064;4.492;2023-03-04T08:48:30;2.85;;;1.05;;
64029;SDS011;50277;52.064;4.492;2023-03-04T08:50:55;4.93;;;1.20;;
64029;SDS011;50277;52.064;4.492;2023-03-04T08:53:21;3.72;;;1.17;;
64029;SDS011;50277;52.064;4.492;2023-03-04T08:55:46;4.18;;;1.02;;
64029;SDS011;50277;52.064;4.492;2023-03-04T08:58:12;2.67;;;0.80;;
64029;SDS011;50277;52.064;4.492;2023-03-04T09:00:38;3.08;;;1.10;;
64029;SDS011;50277;52.064;4.492;2023-03-04T09:03:06;2.33;;;0.93;;
64029;SDS011;50277;52.064;4.492;2023-03-04T09:05:32;3.35;;;1.10;;
64029;SDS011;50277;52.064;4.492;2023-03-04T09:07:57;1.25;;;0.75;;
64029;SDS011;50277;52.064;4.492;2023-03-04T09:10:22;2.63;;;0.90;;
64029;SDS011;50277;52.064;4.492;2023-03-04T09:12:48;2.20;;;1.20;;
64029;SDS011;50277;52.064;4.492;2023-03-04T09:15:13;1.95;;;0.70;;
64029;SDS011;50277;52.064;4.492;2023-03-04T09:17:39;5.00;;;2.10;;
64029;SDS011;50277;52.064;4.492;2023-03-04T09:20:06;5.85;;;1.73;;
64029;SDS011;50277;52.064;4.492;2023-03-04T09:22:34;2.42;;;1.42;;
64029;SDS011;50277;52.064;4.492;2023-03-04T09:25:00;4.78;;;1.33;;
64029;SDS011;50277;52.064;4.492;2023-03-04T09:27:25;4.50;;;1.63;;
64029;SDS011;50277;52.064;4.492;2023-03-04T09:29:51;4.43;;;1.15;;
64029;SDS011;50277;52.064;4.492;2023-03-04T09:32:16;6.63;;;1.20;;
64029;SDS011;50277;52.064;4.492;2023-03-04T09:34:42;5.80;;;1.35;;
64029;SDS011;50277;52.064;4.492;2023-03-04T09:37:07;5.80;;;1.02;;
64029;SDS011;50277;52.064;4.492;2023-03-04T09:39:33;4.55;;;1.33;;
64029;SDS011;50277;52.064;4.492;2023-03-04T09:41:58;4.05;;;0.93;;
64029;SDS011;50277;52.064;4.492;2023-03-04T09:44:25;5.53;;;1.33;;
64029;SDS011;50277;52.064;4.492;2023-03-04T09:46:54;5.53;;;0.90;;
64029;SDS011;50277;52.064;4.492;2023-03-04T09:49:22;3.83;;;1.10;;
64029;SDS011;50277;52.064;4.492;2023-03-04T09:51:53;5.05;;;0.88;;
64029;SDS011;50277;52.064;4.492;2023-03-04T09:54:26;5.30;;;1.27;;
64029;SDS011;50277;52.064;4.492;2023-03-04T09:57:45;4.07;;;1.17;;
64029;SDS011;50277;52.064;4.492;2023-03-04T10:00:04;6.18;;;1.73;;
64029;SDS011;50277;52.064;4.492;2023-03-04T10:02:42;3.38;;;1.00;;
64029;SDS011;50277;52.064;4.492;2023-03-04T10:05:12;4.97;;;1.00;;
64029;SDS011;50277;52.064;4.492;2023-03-04T10:07:40;3.03;;;1.02;;
64029;SDS011;50277;52.064;4.492;2023-03-04T10:10:24;3.65;;;0.98;;
64029;SDS011;50277;52.064;4.492;2023-03-04T10:12:57;3.55;;;1.00;;
64029;SDS011;50277;52.064;4.492;2023-03-04T10:15:35;3.22;;;0.82;;
64029;SDS011;50277;52.064;4.492;2023-03-04T10:18:05;3.80;;;0.90;;
64029;SDS011;50277;52.064;4.492;2023-03-04T10:20:45;2.10;;;0.93;;
64029;SDS011;50277;52.064;4.492;2023-03-04T10:23:23;4.72;;;1.58;;
64029;SDS011;50277;52.064;4.492;2023-03-04T10:25:50;4.43;;;0.98;;
64029;SDS011;50277;52.064;4.492;2023-03-04T10:28:25;4.93;;;1.10;;
64029;SDS011;50277;52.064;4.492;2023-03-04T10:30:56;2.83;;;1.25;;
64029;SDS011;50277;52.064;4.492;2023-03-04T10:33:27;4.85;;;2.03;;
64029;SDS011;50277;52.064;4.492;2023-03-04T10:36:00;4.38;;;1.60;;
64029;SDS011;50277;52.064;4.492;2023-03-04T10:38:35;4.85;;;1.50;;
64029;SDS011;50277;52.064;4.492;2023-03-04T10:41:09;5.90;;;1.60;;
64029;SDS011;50277;52.064;4.492;2023-03-04T10:43:42;6.28;;;1.70;;
64029;SDS011;50277;52.064;4.492;2023-03-04T10:46:11;4.45;;;1.23;;
64029;SDS011;50277;52.064;4.492;2023-03-04T10:48:36;4.13;;;1.30;;
64029;SDS011;50277;52.064;4.492;2023-03-04T10:53:38;8.48;;;1.30;;
64029;SDS011;50277;52.064;4.492;2023-03-04T10:56:28;6.22;;;1.38;;
64029;SDS011;50277;52.064;4.492;2023-03-04T11:01:58;5.75;;;1.55;;
64029;SDS011;50277;52.064;4.492;2023-03-04T11:04:25;5.43;;;1.67;;
64029;SDS011;50277;52.064;4.492;2023-03-04T11:06:52;7.88;;;1.73;;
64029;SDS011;50277;52.064;4.492;2023-03-04T11:09:24;5.53;;;1.30;;
64029;SDS011;50277;52.064;4.492;2023-03-04T11:11:54;4.68;;;1.42;;
64029;SDS011;50277;52.064;4.492;2023-03-04T11:14:27;6.50;;;1.10;;
64029;SDS011;50277;52.064;4.492;2023-03-04T11:17:15;4.10;;;1.50;;
64029;SDS011;50277;52.064;4.492;2023-03-04T11:19:50;3.47;;;1.02;;
64029;SDS011;50277;52.064;4.492;2023-03-04T11:22:26;7.50;;;1.10;;
64029;SDS011;50277;52.064;4.492;2023-03-04T11:25:04;4.28;;;1.30;;
64029;SDS011;50277;52.064;4.492;2023-03-04T11:27:37;5.78;;;1.20;;
64029;SDS011;50277;52.064;4.492;2023-03-04T11:32:54;4.55;;;1.45;;
64029;SDS011;50277;52.064;4.492;2023-03-04T11:35:27;3.72;;;1.20;;
64029;SDS011;50277;52.064;4.492;2023-03-04T11:38:03;4.13;;;1.08;;
64029;SDS011;50277;52.064;4.492;2023-03-04T11:51:05;7.78;;;1.27;;
64029;SDS011;50277;52.064;4.492;2023-03-04T11:53:51;1.92;;;0.88;;
64029;SDS011;50277;52.064;4.492;2023-03-04T11:59:20;2.72;;;0.70;;
64029;SDS011;50277;52.064;4.492;2023-03-04T12:10:43;2.88;;;0.73;;
64029;SDS011;50277;52.064;4.492;2023-03-04T12:13:36;4.63;;;1.17;;
64029;SDS011;50277;52.064;4.492;2023-03-04T12:16:19;1.77;;;1.02;;
64029;SDS011;50277;52.064;4.492;2023-03-04T12:30:02;4.60;;;1.33;;
64029;SDS011;50277;52.064;4.492;2023-03-04T12:37:42;6.80;;;1.77;;
64029;SDS011;50277;52.064;4.492;2023-03-04T12:40:29;6.10;;;1.67;;
64029;SDS011;50277;52.064;4.492;2023-03-04T12:45:45;4.35;;;1.20;;
64029;SDS011;50277;52.064;4.492;2023-03-04T12:56:00;8.00;;;1.73;;
64029;SDS011;50277;52.064;4.492;2023-03-04T12:58:28;5.65;;;1.45;;
64029;SDS011;50277;52.064;4.492;2023-03-04T13:03:32;6.82;;;1.50;;
64029;SDS011;50277;52.064;4.492;2023-03-04T13:12:01;7.93;;;1.60;;
64029;SDS011;50277;52.064;4.492;2023-03-04T13:14:24;8.15;;;1.77;;
64029;SDS011;50277;52.064;4.492;2023-03-04T13:16:53;3.70;;;0.88;;
64029;SDS011;50277;52.064;4.492;2023-03-04T13:22:25;6.35;;;1.73;;
64029;SDS011;50277;52.064;4.492;2023-03-04T13:25:48;11.65;;;2.42;;
64029;SDS011;50277;52.064;4.492;2023-03-04T13:58:49;17.00;;;3.00;;
64029;SDS011;50277;52.064;4.492;2023-03-04T14:01:24;10.90;;;2.55;;
64029;SDS011;50277;52.064;4.492;2023-03-04T14:03:51;8.13;;;1.60;;
64029;SDS011;50277;52.064;4.492;2023-03-04T14:06:21;11.57;;;1.98;;
64029;SDS011;50277;52.064;4.492;2023-03-04T14:08:48;8.95;;;1.83;;
64029;SDS011;50277;52.064;4.492;2023-03-04T14:11:14;14.10;;;3.00;;
64029;SDS011;50277;52.064;4.492;2023-03-04T14:13:42;9.38;;;1.92;;
64029;SDS011;50277;52.064;4.492;2023-03-04T14:16:08;12.75;;;2.15;;
64029;SDS011;50277;52.064;4.492;2023-03-04T14:18:33;13.25;;;2.70;;
64029;SDS011;50277;52.064;4.492;2023-03-04T14:20:59;13.45;;;1.83;;
64029;SDS011;50277;52.064;4.492;2023-03-04T14:23:43;12.85;;;2.60;;
64029;SDS011;50277;52.064;4.492;2023-03-04T15:29:31;21.38;;;2.38;;
64029;SDS011;50277;52.064;4.492;2023-03-04T15:31:56;6.43;;;2.15;;
64029;SDS011;50277;52.064;4.492;2023-03-04T15:34:21;15.25;;;1.95;;
64029;SDS011;50277;52.064;4.492;2023-03-04T15:36:50;10.00;;;1.95;;
64029;SDS011;50277;52.064;4.492;2023-03-04T15:39:16;9.02;;;2.17;;
64029;SDS011;50277;52.064;4.492;2023-03-04T15:41:42;11.50;;;2.60;;
64029;SDS011;50277;52.064;4.492;2023-03-04T15:44:08;9.00;;;2.08;;
64029;SDS011;50277;52.064;4.492;2023-03-04T15:46:33;12.55;;;1.92;;
64029;SDS011;50277;52.064;4.492;2023-03-04T15:48:59;14.18;;;2.33;;
64029;SDS011;50277;52.064;4.492;2023-03-04T15:51:24;13.63;;;2.00;;
64029;SDS011;50277;52.064;4.492;2023-03-04T15:53:50;13.70;;;2.25;;
64029;SDS011;50277;52.064;4.492;2023-03-04T15:56:18;10.07;;;2.10;;
64029;SDS011;50277;52.064;4.492;2023-03-04T15:58:46;10.63;;;2.10;;
64029;SDS011;50277;52.064;4.492;2023-03-04T16:01:21;7.10;;;1.35;;
64029;SDS011;50277;52.064;4.492;2023-03-04T16:03:47;7.13;;;1.45;;
64029;SDS011;50277;52.064;4.492;2023-03-04T16:06:13;10.35;;;1.80;;
64029;SDS011;50277;52.064;4.492;2023-03-04T16:08:39;9.38;;;1.52;;
64029;SDS011;50277;52.064;4.492;2023-03-04T16:11:05;8.57;;;2.03;;
64029;SDS011;50277;52.064;4.492;2023-03-04T16:13:30;6.82;;;2.00;;
64029;SDS011;50277;52.064;4.492;2023-03-04T16:15:56;7.00;;;1.23;;
64029;SDS011;50277;52.064;4.492;2023-03-04T16:18:21;4.18;;;1.10;;
64029;SDS011;50277;52.064;4.492;2023-03-04T16:20:48;9.25;;;1.88;;
64029;SDS011;50277;52.064;4.492;2023-03-04T16:23:21;6.15;;;1.50;;
64029;SDS011;50277;52.064;4.492;2023-03-04T16:25:47;4.80;;;1.75;;
64029;SDS011;50277;52.064;4.492;2023-03-04T16:28:13;6.68;;;1.25;;
64029;SDS011;50277;52.064;4.492;2023-03-04T16:30:39;5.90;;;1.33;;
64029;SDS011;50277;52.064;4.492;2023-03-04T16:33:05;7.40;;;1.52;;
64029;SDS011;50277;52.064;4.492;2023-03-04T16:35:31;5.35;;;1.90;;
64029;SDS011;50277;52.064;4.492;2023-03-04T16:37:58;8.15;;;1.88;;
64029;SDS011;50277;52.064;4.492;2023-03-04T16:40:25;3.97;;;1.33;;
64029;SDS011;50277;52.064;4.492;2023-03-04T16:42:52;4.85;;;1.50;;
64029;SDS011;50277;52.064;4.492;2023-03-04T16:45:25;8.18;;;1.45;;
64029;SDS011;50277;52.064;4.492;2023-03-04T16:47:51;2.88;;;1.25;;
64029;SDS011;50277;52.064;4.492;2023-03-04T16:50:21;5.78;;;1.20;;
64029;SDS011;50277;52.064;4.492;2023-03-04T16:52:51;5.00;;;1.42;;
64029;SDS011;50277;52.064;4.492;2023-03-04T16:55:25;4.07;;;1.60;;
64029;SDS011;50277;52.064;4.492;2023-03-04T16:57:52;10.68;;;1.40;;
64029;SDS011;50277;52.064;4.492;2023-03-04T17:00:18;4.57;;;1.63;;
64029;SDS011;50277;52.064;4.492;2023-03-04T17:02:46;6.88;;;1.20;;
64029;SDS011;50277;52.064;4.492;2023-03-04T17:05:22;2.25;;;0.90;;
64029;SDS011;50277;52.064;4.492;2023-03-04T17:07:49;4.95;;;0.88;;
64029;SDS011;50277;52.064;4.492;2023-03-04T17:10:15;3.63;;;1.00;;
64029;SDS011;50277;52.064;4.492;2023-03-04T17:12:41;7.43;;;1.70;;
64029;SDS011;50277;52.064;4.492;2023-03-04T17:15:08;3.08;;;0.85;;
64029;SDS011;50277;52.064;4.492;2023-03-04T17:17:34;7.93;;;1.20;;
64029;SDS011;50277;52.064;4.492;2023-03-04T17:19:59;3.25;;;1.30;;
64029;SDS011;50277;52.064;4.492;2023-03-04T17:22:29;6.07;;;1.35;;
64029;SDS011;50277;52.064;4.492;2023-03-04T17:24:54;5.82;;;1.35;;
64029;SDS011;50277;52.064;4.492;2023-03-04T17:27:20;4.68;;;1.42;;
64029;SDS011;50277;52.064;4.492;2023-03-04T17:29:45;5.85;;;1.58;;
64029;SDS011;50277;52.064;4.492;2023-03-04T17:32:12;6.07;;;1.40;;
64029;SDS011;50277;52.064;4.492;2023-03-04T17:34:38;5.30;;;1.30;;